JBU126 KTPA-KJFK
Flight info
| Callsign | JBU126 |
|---|---|
| Flight time | N/A |
| Altitude | 35000 |
| Route | BAYPO2 CAMJO Q109 DFENC SAWED Q108 SIE CAMRN5 |
| Aircraft | A321/M-SDE3FGHIRWY/LB1 |
Departure
| Time | 2026-04-30 19:23 |
|---|---|
| Airport | Tampa International Airport (KTPA) |
Arrival
| Time | N/A |
|---|---|
| Airport | John F. Kennedy International Airport (KJFK) |
| Time | Latitude | Longitude | Altitude | Speed | Heading |
|---|---|---|---|---|---|
| 2026-04-30 18:45 | 27.97607 | -82.53156 | 31 ft | 0 kts | 268° |
| 2026-04-30 19:13 | 27.97607 | -82.53142 | 31 ft | 2 kts | 268° |
| 2026-04-30 19:13 | 27.97608 | -82.53115 | 31 ft | 2 kts | 249° |
| 2026-04-30 19:13 | 27.97617 | -82.53101 | 31 ft | 2 kts | 209° |
| 2026-04-30 19:14 | 27.97627 | -82.53097 | 31 ft | 0 kts | 183° |
| 2026-04-30 19:14 | 27.97634 | -82.53098 | 31 ft | 1 kts | 180° |
| 2026-04-30 19:14 | 27.97635 | -82.53098 | 31 ft | 0 kts | 180° |
| 2026-04-30 19:18 | 27.97632 | -82.53097 | 31 ft | 3 kts | 180° |
| 2026-04-30 19:18 | 27.97571 | -82.53091 | 31 ft | 10 kts | 161° |
| 2026-04-30 19:19 | 27.97542 | -82.53024 | 30 ft | 11 kts | 70° |
| 2026-04-30 19:19 | 27.97602 | -82.53007 | 30 ft | 7 kts | 7° |
| 2026-04-30 19:19 | 27.97782 | -82.52984 | 31 ft | 16 kts | 3° |
| 2026-04-30 19:20 | 27.97897 | -82.52978 | 32 ft | 16 kts | 2° |
| 2026-04-30 19:20 | 27.98044 | -82.52971 | 32 ft | 25 kts | 1° |
| 2026-04-30 19:20 | 27.98394 | -82.52961 | 31 ft | 24 kts | 2° |
| 2026-04-30 19:21 | 27.98557 | -82.52960 | 31 ft | 22 kts | 2° |
| 2026-04-30 19:21 | 27.98661 | -82.52949 | 32 ft | 0 kts | 18° |
| 2026-04-30 19:22 | 27.98702 | -82.52892 | 32 ft | 15 kts | 93° |
| 2026-04-30 19:22 | 27.97575 | -82.52869 | 29 ft | 137 kts | 180° |
| 2026-04-30 19:23 | 27.94072 | -82.52902 | 1378 ft | 168 kts | 189° |
| 2026-04-30 19:24 | 27.91803 | -82.53352 | 2228 ft | 167 kts | 194° |
| 2026-04-30 19:24 | 27.90645 | -82.53606 | 2495 ft | 170 kts | 194° |
| 2026-04-30 19:24 | 27.88269 | -82.53893 | 3044 ft | 182 kts | 166° |
| 2026-04-30 19:25 | 27.85269 | -82.55325 | 3652 ft | 194 kts | 274° |
| 2026-04-30 19:26 | 27.87047 | -82.57647 | 4136 ft | 220 kts | 333° |
| 2026-04-30 19:26 | 27.90357 | -82.58043 | 4721 ft | 257 kts | 3° |
| 2026-04-30 19:26 | 27.92175 | -82.57856 | 5153 ft | 269 kts | 2° |
| 2026-04-30 19:27 | 27.95958 | -82.57605 | 6521 ft | 273 kts | 359° |
| 2026-04-30 19:27 | 27.99769 | -82.57484 | 7865 ft | 277 kts | 356° |
| 2026-04-30 19:28 | 28.01691 | -82.57450 | 8506 ft | 279 kts | 356° |
| 2026-04-30 19:28 | 28.05596 | -82.57409 | 9781 ft | 283 kts | 354° |
| 2026-04-30 19:29 | 28.09642 | -82.57394 | 10654 ft | 301 kts | 354° |
| 2026-04-30 19:29 | 28.11777 | -82.57391 | 10927 ft | 316 kts | 354° |
| 2026-04-30 19:30 | 28.18753 | -82.57365 | 12306 ft | 338 kts | 354° |
| 2026-04-30 19:30 | 28.23508 | -82.57343 | 13516 ft | 343 kts | 354° |
| 2026-04-30 19:31 | 28.28340 | -82.57320 | 14632 ft | 347 kts | 354° |
| 2026-04-30 19:31 | 28.30759 | -82.57310 | 15169 ft | 349 kts | 354° |
| 2026-04-30 19:31 | 28.35651 | -82.57291 | 16218 ft | 354 kts | 354° |
| 2026-04-30 19:32 | 28.38131 | -82.57283 | 16725 ft | 357 kts | 354° |
| 2026-04-30 19:32 | 28.40626 | -82.57272 | 17238 ft | 358 kts | 354° |
| 2026-04-30 19:32 | 28.43154 | -82.57263 | 17714 ft | 360 kts | 354° |
| 2026-04-30 19:32 | 28.45672 | -82.57255 | 18168 ft | 363 kts | 354° |
| 2026-04-30 19:33 | 28.48197 | -82.57246 | 18574 ft | 367 kts | 354° |
| 2026-04-30 19:33 | 28.50774 | -82.57238 | 18977 ft | 370 kts | 354° |
| 2026-04-30 19:33 | 28.53373 | -82.57228 | 19385 ft | 373 kts | 354° |
| 2026-04-30 19:33 | 28.55999 | -82.57217 | 19777 ft | 376 kts | 354° |
| 2026-04-30 19:34 | 28.58609 | -82.57206 | 20132 ft | 380 kts | 354° |
| 2026-04-30 19:34 | 28.61294 | -82.57198 | 20515 ft | 382 kts | 354° |
| 2026-04-30 19:34 | 28.66638 | -82.57179 | 21230 ft | 387 kts | 354° |
| 2026-04-30 19:35 | 28.69357 | -82.57168 | 21570 ft | 389 kts | 353° |
| 2026-04-30 19:35 | 28.72066 | -82.57158 | 21909 ft | 391 kts | 353° |
| 2026-04-30 19:35 | 28.74807 | -82.57148 | 22209 ft | 394 kts | 354° |
| 2026-04-30 19:35 | 28.77606 | -82.57139 | 22512 ft | 397 kts | 353° |
| 2026-04-30 19:36 | 28.80386 | -82.57127 | 22854 ft | 399 kts | 354° |
| 2026-04-30 19:36 | 28.83166 | -82.57117 | 23212 ft | 401 kts | 354° |
| 2026-04-30 19:36 | 28.88797 | -82.57094 | 23904 ft | 404 kts | 354° |
| 2026-04-30 19:37 | 28.91612 | -82.57085 | 24221 ft | 406 kts | 354° |
| 2026-04-30 19:37 | 28.94484 | -82.57073 | 24536 ft | 408 kts | 353° |
| 2026-04-30 19:37 | 28.97313 | -82.57063 | 24865 ft | 410 kts | 353° |
| 2026-04-30 19:37 | 29.00189 | -82.57051 | 25180 ft | 412 kts | 353° |
| 2026-04-30 19:38 | 29.03068 | -82.57040 | 25485 ft | 413 kts | 353° |
| 2026-04-30 19:38 | 29.05971 | -82.57030 | 25799 ft | 415 kts | 353° |
| 2026-04-30 19:38 | 29.08872 | -82.57019 | 26120 ft | 416 kts | 353° |
| 2026-04-30 19:38 | 29.11786 | -82.57007 | 26429 ft | 418 kts | 353° |
| 2026-04-30 19:39 | 29.14705 | -82.56995 | 26754 ft | 419 kts | 353° |
| 2026-04-30 19:39 | 29.17633 | -82.56985 | 27068 ft | 421 kts | 353° |
| 2026-04-30 19:39 | 29.20565 | -82.56975 | 27358 ft | 423 kts | 353° |
| 2026-04-30 19:39 | 29.23536 | -82.56964 | 27669 ft | 424 kts | 353° |
| 2026-04-30 19:40 | 29.26503 | -82.56954 | 27921 ft | 427 kts | 353° |
| 2026-04-30 19:40 | 29.29485 | -82.56943 | 28198 ft | 429 kts | 353° |